createdAt,value
2023-02-16T00:01:29.164Z,85.37
2023-02-16T00:03:56.742Z,86.21
2023-02-16T00:06:27.798Z,84.60
2023-02-16T00:08:56.222Z,84.31
2023-02-16T00:11:52.808Z,84.33
2023-02-16T00:14:26.239Z,84.44
2023-02-16T00:16:54.977Z,85.06
2023-02-16T00:19:28.470Z,85.64
2023-02-16T00:21:57.613Z,85.53
2023-02-16T00:24:26.742Z,85.33
2023-02-16T00:26:54.447Z,86.38
2023-02-16T00:29:24.881Z,86.66
2023-02-16T00:31:52.579Z,86.76
2023-02-16T00:34:28.100Z,86.47
2023-02-16T00:36:55.831Z,85.73
2023-02-16T00:39:25.068Z,85.23
2023-02-16T00:41:56.303Z,84.14
2023-02-16T00:44:33.572Z,84.88
2023-02-16T00:47:15.399Z,83.46
2023-02-16T00:49:42.287Z,83.36
2023-02-16T00:52:12.233Z,84.60
2023-02-16T00:54:39.081Z,85.48
2023-02-16T00:57:05.748Z,86.43
2023-02-16T00:59:32.622Z,83.99
2023-02-16T01:01:59.306Z,84.44
2023-02-16T01:04:26.272Z,84.81
2023-02-16T01:07:11.691Z,85.15
2023-02-16T01:09:57.238Z,86.24
2023-02-16T01:12:24.282Z,86.62
2023-02-16T01:14:54.318Z,86.55
2023-02-16T01:17:21.709Z,86.61
2023-02-16T01:19:48.631Z,85.59
2023-02-16T01:22:15.997Z,86.62
2023-02-16T01:24:42.896Z,86.88
2023-02-16T01:27:12.750Z,83.90
2023-02-16T01:29:39.802Z,81.55
2023-02-16T01:32:06.715Z,82.07
2023-02-16T01:34:33.696Z,83.47
2023-02-16T01:37:00.331Z,83.18
2023-02-16T01:39:27.243Z,85.32
2023-02-16T01:42:06.212Z,82.76
2023-02-16T01:44:34.996Z,83.99
2023-02-16T01:47:07.443Z,83.90
2023-02-16T01:49:34.340Z,86.89
2023-02-16T01:52:11.471Z,92.42
2023-02-16T01:54:40.780Z,90.15
2023-02-16T01:57:10.609Z,85.44
2023-02-16T01:59:49.628Z,84.36
2023-02-16T02:02:22.942Z,84.93
2023-02-16T02:05:19.571Z,86.50
2023-02-16T02:08:00.055Z,86.09
2023-02-16T02:10:52.904Z,87.89
2023-02-16T02:13:37.072Z,87.37
2023-02-16T02:16:05.567Z,86.94
2023-02-16T02:18:32.576Z,86.94
2023-02-16T02:21:55.760Z,85.77
2023-02-16T02:24:43.932Z,83.96
2023-02-16T02:27:19.560Z,84.62
2023-02-16T02:30:20.599Z,85.24
2023-02-16T02:33:29.668Z,84.75
2023-02-16T02:36:07.848Z,85.87
2023-02-16T02:38:52.788Z,84.29
2023-02-16T02:41:54.415Z,82.95
2023-02-16T02:44:23.041Z,84.06
2023-02-16T02:46:50.259Z,82.60
2023-02-16T02:49:17.188Z,81.94
2023-02-16T02:51:44.091Z,81.90
2023-02-16T02:54:53.633Z,83.02
2023-02-16T02:58:00.252Z,82.11
2023-02-16T03:00:44.101Z,83.11
2023-02-16T03:03:23.138Z,83.40
2023-02-16T03:05:55.925Z,81.73
2023-02-16T03:08:25.332Z,81.91
2023-02-16T03:11:17.272Z,83.52
2023-02-16T03:13:47.898Z,81.96
2023-02-16T03:16:19.584Z,81.94
2023-02-16T03:19:05.913Z,83.31
2023-02-16T03:21:52.431Z,84.51
2023-02-16T03:24:46.729Z,83.39
2023-02-16T03:27:34.502Z,84.67
2023-02-16T03:30:02.526Z,85.53
2023-02-16T03:32:29.472Z,82.09
2023-02-16T03:34:56.450Z,82.16
2023-02-16T03:37:23.474Z,82.23
2023-02-16T03:40:09.087Z,81.94
2023-02-16T03:42:35.936Z,83.30
2023-02-16T03:45:02.642Z,83.50
2023-02-16T03:47:29.506Z,83.95
2023-02-16T03:49:56.164Z,83.06
2023-02-16T03:52:23.030Z,84.55
2023-02-16T03:54:49.708Z,87.42
2023-02-16T03:57:17.168Z,87.34
2023-02-16T03:59:44.016Z,90.94
2023-02-16T04:02:10.759Z,86.58
2023-02-16T04:04:37.666Z,86.89
2023-02-16T04:07:04.550Z,88.73
2023-02-16T04:09:31.221Z,87.51
2023-02-16T04:12:16.482Z,84.57
2023-02-16T04:14:43.845Z,86.48
2023-02-16T04:17:10.801Z,88.80
2023-02-16T04:19:37.698Z,88.85
2023-02-16T04:22:04.569Z,95.07
2023-02-16T04:24:31.232Z,96.79
2023-02-16T04:26:58.123Z,96.43
2023-02-16T04:29:25.006Z,95.12
2023-02-16T04:31:52.027Z,91.76
2023-02-16T04:34:19.056Z,90.74
2023-02-16T04:36:45.919Z,92.06
2023-02-16T04:39:12.635Z,92.94
2023-02-16T04:41:39.486Z,91.77
2023-02-16T04:44:06.157Z,87.99
2023-02-16T04:46:33.057Z,88.37
2023-02-16T04:49:00.025Z,86.70
2023-02-16T04:51:26.950Z,87.29
2023-02-16T04:53:53.804Z,84.98
2023-02-16T04:56:20.453Z,85.90
2023-02-16T04:58:47.379Z,84.94
2023-02-16T05:01:25.819Z,85.01
2023-02-16T05:03:52.728Z,83.16
2023-02-16T05:06:19.463Z,83.36
2023-02-16T05:08:47.022Z,85.57
2023-02-16T05:11:32.369Z,90.05
2023-02-16T05:14:22.849Z,90.07
2023-02-16T05:16:49.765Z,90.06
2023-02-16T05:19:16.739Z,88.63
2023-02-16T05:21:43.616Z,88.02
2023-02-16T05:24:11.167Z,88.62
2023-02-16T05:26:42.283Z,88.34
2023-02-16T05:29:09.229Z,85.57
2023-02-16T05:31:36.189Z,84.70
2023-02-16T05:34:03.172Z,84.75
2023-02-16T05:36:30.068Z,90.73
2023-02-16T05:38:57.062Z,94.65
2023-02-16T05:41:23.968Z,95.04
2023-02-16T05:43:58.906Z,93.84
2023-02-16T05:46:26.660Z,89.80
2023-02-16T05:48:53.689Z,87.65
2023-02-16T05:51:21.258Z,84.49
2023-02-16T05:53:48.125Z,82.49
2023-02-16T05:56:15.392Z,84.19
2023-02-16T05:58:42.428Z,85.22
2023-02-16T06:01:09.288Z,84.06
2023-02-16T06:03:36.540Z,85.10
2023-02-16T06:06:04.858Z,84.79
2023-02-16T06:08:32.678Z,87.81
2023-02-16T06:10:59.982Z,87.70
2023-02-16T06:13:26.905Z,87.75
2023-02-16T06:15:55.633Z,90.96
2023-02-16T06:18:24.006Z,88.23
2023-02-16T06:20:51.014Z,88.25
2023-02-16T06:23:18.247Z,88.06
2023-02-16T06:25:50.536Z,88.23
2023-02-16T06:28:17.463Z,85.87
2023-02-16T06:30:44.299Z,88.81
2023-02-16T06:33:11.090Z,90.25
2023-02-16T06:35:37.913Z,93.56
2023-02-16T06:38:04.584Z,100.00
2023-02-16T06:40:31.455Z,100.00
2023-02-16T06:42:58.128Z,96.10
2023-02-16T06:45:24.981Z,87.23
2023-02-16T06:47:51.675Z,78.95
2023-02-16T06:50:19.270Z,73.68
2023-02-16T06:52:46.163Z,69.96
2023-02-16T06:55:13.054Z,66.38
2023-02-16T06:57:39.908Z,64.10
2023-02-16T07:00:07.773Z,59.83
2023-02-16T07:02:35.830Z,57.39
2023-02-16T07:05:03.436Z,54.44
2023-02-16T07:07:31.427Z,53.01
2023-02-16T07:09:58.452Z,51.41
2023-02-16T07:12:25.311Z,51.44
2023-02-16T07:14:51.989Z,51.11
2023-02-16T07:17:18.849Z,51.51
2023-02-16T07:19:45.533Z,49.56
2023-02-16T07:22:12.740Z,49.67
2023-02-16T07:24:39.620Z,50.74
2023-02-16T07:27:07.059Z,50.04
2023-02-16T07:29:33.901Z,50.75
2023-02-16T07:32:01.509Z,50.60
2023-02-16T07:34:28.522Z,50.97
2023-02-16T07:36:55.375Z,49.77
2023-02-16T07:39:22.173Z,48.97
2023-02-16T07:41:49.017Z,49.15
2023-02-16T07:44:15.678Z,49.15
2023-02-16T07:46:42.535Z,48.28
2023-02-16T07:49:09.484Z,49.65
2023-02-16T07:51:36.358Z,50.61
2023-02-16T07:54:03.288Z,50.23
2023-02-16T07:56:32.103Z,49.71
2023-02-16T07:59:00.466Z,50.19
2023-02-16T08:01:28.476Z,51.38
2023-02-16T08:03:55.376Z,53.18
2023-02-16T08:06:22.436Z,55.75
2023-02-16T08:08:49.923Z,56.43
2023-02-16T08:11:24.321Z,56.63
2023-02-16T08:13:51.980Z,56.29
2023-02-16T08:16:21.464Z,59.23
2023-02-16T08:18:48.596Z,59.68
2023-02-16T08:21:18.285Z,58.82
2023-02-16T08:23:49.607Z,58.39
2023-02-16T08:26:17.611Z,58.95
2023-02-16T08:28:50.236Z,59.27
2023-02-16T08:31:20.882Z,57.47
2023-02-16T08:33:48.276Z,56.17
2023-02-16T08:36:23.670Z,56.27
2023-02-16T08:38:52.414Z,55.95
2023-02-16T08:41:20.340Z,55.69
2023-02-16T08:43:48.341Z,56.08
2023-02-16T08:46:16.475Z,53.09
2023-02-16T08:48:45.382Z,55.51
2023-02-16T08:51:19.988Z,56.17
2023-02-16T08:53:47.113Z,57.42
2023-02-16T08:56:15.026Z,56.10
2023-02-16T08:58:42.486Z,57.31
2023-02-16T09:01:10.891Z,60.65
2023-02-16T09:03:41.353Z,60.12
2023-02-16T09:06:09.077Z,60.50
2023-02-16T09:08:39.129Z,59.74
2023-02-16T09:11:08.901Z,59.47
2023-02-16T09:13:36.496Z,57.55
2023-02-16T09:16:08.204Z,58.42
2023-02-16T09:18:36.945Z,57.64
2023-02-16T09:21:12.827Z,56.66
2023-02-16T09:23:41.393Z,56.47
2023-02-16T09:26:10.560Z,53.98
2023-02-16T09:28:38.388Z,56.19
2023-02-16T09:31:27.467Z,55.56
2023-02-16T09:33:57.093Z,53.95
2023-02-16T09:36:24.610Z,55.05
2023-02-16T09:38:51.640Z,55.12
2023-02-16T09:41:37.780Z,55.23
2023-02-16T09:44:21.052Z,54.29
2023-02-16T09:46:49.136Z,55.15
2023-02-16T09:49:30.478Z,55.18
2023-02-16T09:52:05.789Z,54.78
2023-02-16T09:54:40.693Z,54.30
2023-02-16T09:57:16.975Z,55.23
2023-02-16T10:00:04.623Z,56.29
2023-02-16T10:02:45.952Z,56.00
2023-02-16T10:05:22.009Z,55.89
2023-02-16T10:11:49.060Z,55.14
2023-02-16T10:14:32.774Z,56.61
2023-02-16T10:23:52.888Z,54.90
2023-02-16T10:26:28.863Z,55.36
2023-02-16T10:32:30.770Z,53.70
2023-02-16T10:35:01.298Z,52.68
2023-02-16T10:41:34.511Z,53.00
2023-02-16T10:44:14.036Z,52.56
2023-02-16T10:46:43.666Z,52.40
2023-02-16T10:52:54.670Z,52.98
2023-02-16T10:55:22.084Z,52.25
2023-02-16T11:04:37.810Z,48.94
2023-02-16T11:14:23.846Z,47.93
2023-02-16T11:17:08.770Z,46.13
2023-02-16T11:19:35.707Z,46.31
2023-02-16T11:22:02.817Z,45.69
2023-02-16T11:24:32.557Z,45.28
2023-02-16T11:27:03.641Z,46.27
2023-02-16T11:29:31.830Z,46.38
2023-02-16T11:32:02.203Z,46.08
2023-02-16T11:34:34.182Z,46.01
2023-02-16T11:37:05.624Z,44.49
2023-02-16T11:39:37.804Z,45.29
2023-02-16T11:42:22.446Z,45.59
2023-02-16T11:44:53.882Z,44.86
2023-02-16T11:51:32.046Z,44.68
2023-02-16T11:54:05.474Z,45.59
2023-02-16T11:56:34.509Z,45.22
2023-02-16T12:02:40.789Z,43.39
2023-02-16T12:05:26.298Z,43.87
2023-02-16T12:11:46.090Z,42.67
2023-02-16T12:14:57.245Z,44.98
2023-02-16T12:24:24.840Z,43.46
2023-02-16T12:26:55.748Z,44.15
2023-02-16T12:29:45.015Z,44.21
2023-02-16T12:32:20.768Z,44.91
2023-02-16T12:34:57.797Z,44.32
2023-02-16T12:41:36.488Z,46.41
2023-02-16T12:44:08.556Z,45.93
2023-02-16T12:46:39.720Z,46.45
2023-02-16T12:53:17.566Z,46.18
2023-02-16T12:55:49.212Z,46.78
2023-02-16T13:02:25.276Z,46.39
2023-02-16T13:05:12.034Z,46.85
2023-02-16T13:11:46.029Z,47.29
2023-02-16T13:14:31.037Z,48.59
2023-02-16T13:17:02.169Z,47.34
2023-02-16T13:19:29.242Z,47.93
2023-02-16T13:22:11.520Z,47.47
2023-02-16T13:24:52.945Z,47.57
2023-02-16T13:35:00.381Z,47.80
2023-02-16T13:41:36.616Z,47.88
2023-02-16T13:44:16.002Z,48.56
2023-02-16T13:46:50.335Z,48.12
2023-02-16T13:52:45.622Z,47.85
2023-02-16T13:55:39.505Z,47.58
2023-02-16T14:04:23.862Z,46.68
2023-02-16T14:07:13.929Z,47.19
2023-02-16T14:09:41.121Z,46.82
2023-02-16T14:12:31.937Z,46.87
2023-02-16T14:15:05.174Z,48.42
2023-02-16T14:21:39.354Z,46.73
2023-02-16T14:24:10.957Z,46.84
2023-02-16T14:27:15.940Z,47.03
2023-02-16T14:30:14.806Z,48.19
2023-02-16T14:32:47.711Z,47.45
2023-02-16T14:35:29.495Z,46.96
2023-02-16T14:41:39.038Z,47.31
2023-02-16T14:44:06.171Z,47.30
2023-02-16T14:46:50.999Z,47.44
2023-02-16T14:53:17.970Z,45.89
2023-02-16T14:56:10.039Z,46.84
2023-02-16T15:05:21.777Z,49.70
2023-02-16T15:11:58.544Z,51.56
2023-02-16T15:14:26.160Z,52.65
2023-02-16T15:16:54.129Z,52.79
2023-02-16T15:23:04.195Z,53.95
2023-02-16T15:25:39.622Z,56.14
2023-02-16T15:28:12.263Z,55.82
2023-02-16T15:30:47.435Z,56.56
2023-02-16T15:33:23.667Z,57.39
2023-02-16T15:36:01.921Z,59.10
2023-02-16T15:42:21.023Z,59.83
2023-02-16T15:44:48.392Z,59.51
2023-02-16T15:51:34.111Z,60.25
2023-02-16T15:54:06.749Z,60.89
2023-02-16T15:56:38.457Z,62.21
2023-02-16T16:02:29.126Z,63.70
2023-02-16T16:04:58.801Z,60.87
2023-02-16T16:11:37.967Z,60.41
2023-02-16T16:14:06.301Z,59.84
2023-02-16T16:16:34.053Z,60.52
2023-02-16T16:22:43.046Z,59.82
2023-02-16T16:25:35.453Z,59.85
2023-02-16T16:31:43.674Z,59.54
2023-02-16T16:34:15.888Z,61.05
2023-02-16T16:36:56.722Z,63.20
2023-02-16T16:39:31.796Z,60.76
2023-02-16T16:42:01.645Z,62.36
2023-02-16T16:44:42.729Z,63.32
2023-02-16T16:53:52.600Z,67.92
2023-02-16T16:56:20.586Z,67.66
2023-02-16T17:11:06.531Z,69.61
2023-02-16T17:13:33.429Z,71.54
2023-02-16T17:16:07.383Z,70.91
2023-02-16T17:21:50.696Z,72.08
2023-02-16T17:24:17.833Z,71.25
2023-02-16T17:26:44.714Z,73.88
2023-02-16T17:32:59.027Z,73.21
2023-02-16T17:35:28.211Z,73.36
2023-02-16T17:41:41.829Z,74.45
2023-02-16T17:44:08.683Z,73.62
2023-02-16T17:46:35.419Z,73.62
2023-02-16T17:52:44.268Z,76.44
2023-02-16T17:55:12.362Z,75.38
2023-02-16T17:57:39.838Z,75.20
2023-02-16T18:00:09.411Z,75.18
2023-02-16T18:02:36.278Z,77.12
2023-02-16T18:05:02.922Z,74.89
2023-02-16T18:11:41.548Z,71.89
2023-02-16T18:14:08.482Z,72.74
2023-02-16T18:16:35.518Z,73.17
2023-02-16T18:29:33.121Z,74.88
2023-02-16T18:32:00.008Z,76.61
2023-02-16T18:34:26.936Z,76.20
2023-02-16T18:36:53.795Z,75.57
2023-02-16T18:42:42.986Z,76.61
2023-02-16T18:45:10.073Z,77.65
2023-02-16T18:54:09.974Z,77.83
2023-02-16T18:56:38.016Z,78.82
2023-02-16T18:59:04.911Z,79.10
2023-02-16T19:01:33.334Z,80.07
2023-02-16T19:04:01.320Z,80.93
2023-02-16T19:06:28.837Z,82.40
2023-02-16T19:12:42.490Z,81.08
2023-02-16T19:15:12.666Z,81.95
2023-02-16T19:17:42.133Z,81.69
2023-02-16T19:20:12.352Z,81.91
2023-02-16T19:22:39.219Z,79.78
2023-02-16T19:25:06.151Z,79.06
2023-02-16T19:27:36.157Z,79.89
2023-02-16T19:30:03.185Z,83.03
2023-02-16T19:32:32.791Z,83.86
2023-02-16T19:34:59.635Z,86.85
2023-02-16T19:41:28.779Z,87.15
2023-02-16T19:43:55.999Z,86.29
2023-02-16T19:46:23.793Z,82.90
2023-02-16T19:48:50.696Z,81.33
2023-02-16T19:51:18.033Z,82.36
2023-02-16T19:53:44.960Z,78.83
2023-02-16T19:56:13.924Z,78.78
2023-02-16T19:58:41.054Z,80.08
2023-02-16T20:01:19.167Z,81.22
2023-02-16T20:03:46.511Z,80.54
2023-02-16T20:06:31.551Z,79.83
2023-02-16T20:08:59.762Z,79.44
2023-02-16T20:11:28.814Z,79.46
2023-02-16T20:13:56.082Z,79.88
2023-02-16T20:16:24.012Z,80.68
2023-02-16T20:25:00.790Z,82.64
2023-02-16T20:27:28.682Z,81.63
2023-02-16T20:29:55.796Z,83.37
2023-02-16T20:32:26.681Z,83.34
2023-02-16T20:34:53.561Z,88.36
2023-02-16T20:41:29.350Z,87.63
2023-02-16T20:43:56.442Z,87.60
2023-02-16T20:46:24.053Z,85.72
2023-02-16T20:48:51.734Z,86.87
2023-02-16T20:51:19.421Z,90.01
2023-02-16T20:53:46.480Z,89.78
2023-02-16T20:56:20.668Z,87.64
2023-02-16T20:58:49.716Z,86.01
2023-02-16T21:01:27.751Z,81.44
2023-02-16T21:03:56.070Z,80.36
2023-02-16T21:06:23.158Z,83.61
2023-02-16T21:12:30.621Z,87.91
2023-02-16T21:14:57.299Z,86.60
2023-02-16T21:21:38.736Z,87.20
2023-02-16T21:24:05.844Z,88.51
2023-02-16T21:26:32.747Z,88.69
2023-02-16T21:32:40.876Z,83.57
2023-02-16T21:35:07.854Z,86.15
2023-02-16T21:37:35.373Z,82.06
2023-02-16T21:40:20.961Z,81.98
2023-02-16T21:42:47.930Z,84.53
2023-02-16T21:45:14.805Z,83.43
2023-02-16T21:48:02.310Z,85.47
2023-02-16T21:50:30.146Z,86.13
2023-02-16T21:52:58.318Z,81.78
2023-02-16T21:55:43.942Z,84.06
2023-02-16T21:58:10.992Z,84.27
2023-02-16T22:00:38.863Z,81.86
2023-02-16T22:03:06.293Z,79.22
2023-02-16T22:05:34.561Z,79.19
2023-02-16T22:08:01.683Z,82.61
2023-02-16T22:10:28.908Z,80.17
2023-02-16T22:12:56.973Z,80.77
2023-02-16T22:15:26.052Z,80.08
2023-02-16T22:21:41.324Z,78.48
2023-02-16T22:24:08.875Z,82.57
2023-02-16T22:26:36.283Z,81.34
2023-02-16T22:32:43.891Z,78.95
2023-02-16T22:35:10.583Z,82.95
2023-02-16T22:37:37.483Z,83.37
2023-02-16T22:40:04.593Z,79.47
2023-02-16T22:42:31.714Z,79.84
2023-02-16T22:44:58.538Z,79.08
2023-02-16T22:51:40.267Z,79.12
2023-02-16T22:54:07.488Z,84.10
2023-02-16T22:56:34.928Z,83.71
2023-02-16T22:59:02.040Z,82.53
2023-02-16T23:01:30.022Z,81.24
2023-02-16T23:03:58.794Z,81.45
2023-02-16T23:06:37.092Z,80.60
2023-02-16T23:09:06.656Z,80.86
2023-02-16T23:11:34.786Z,80.29
2023-02-16T23:14:02.138Z,80.33
2023-02-16T23:16:29.029Z,80.08
2023-02-16T23:22:36.614Z,80.61
2023-02-16T23:25:22.187Z,80.24
2023-02-16T23:31:36.469Z,79.66
2023-02-16T23:34:04.530Z,80.16
2023-02-16T23:36:33.234Z,79.96
2023-02-16T23:39:01.246Z,80.62
2023-02-16T23:41:28.226Z,81.25
2023-02-16T23:43:56.529Z,79.38
2023-02-16T23:46:24.853Z,79.04
2023-02-16T23:48:51.713Z,79.53
2023-02-16T23:51:18.829Z,79.94
2023-02-16T23:53:45.734Z,80.68
2023-02-16T23:56:19.838Z,82.24
2023-02-16T23:58:47.244Z,79.35
